sensor_id;sensor_type;location;lat;lon;timestamp;pressure;altitude;pressure_sealevel;temperature;humidity
49877;BME280;35771;48.978;9.294;2023-03-01T00:02:20;99835.13;;;-1.86;95.08
49877;BME280;35771;48.978;9.294;2023-03-01T00:04:47;99814.25;;;-1.94;94.29
49877;BME280;35771;48.978;9.294;2023-03-01T00:07:13;99824.38;;;-1.85;94.17
49877;BME280;35771;48.978;9.294;2023-03-01T00:09:40;99849.38;;;-1.71;94.31
49877;BME280;35771;48.978;9.294;2023-03-01T00:12:06;99822.38;;;-1.81;93.45
49877;BME280;35771;48.978;9.294;2023-03-01T00:14:33;99837.06;;;-1.74;93.99
49877;BME280;35771;48.978;9.294;2023-03-01T00:16:59;99834.22;;;-1.71;93.55
49877;BME280;35771;48.978;9.294;2023-03-01T00:19:28;99820.69;;;-1.82;93.58
49877;BME280;35771;48.978;9.294;2023-03-01T00:21:54;99831.91;;;-1.77;94.14
49877;BME280;35771;48.978;9.294;2023-03-01T00:24:21;99844.81;;;-1.85;94.03
49877;BME280;35771;48.978;9.294;2023-03-01T00:26:52;99859.03;;;-1.85;94.14
49877;BME280;35771;48.978;9.294;2023-03-01T00:29:20;99871.47;;;-1.85;94.72
49877;BME280;35771;48.978;9.294;2023-03-01T00:31:47;99847.72;;;-2.04;94.94
49877;BME280;35771;48.978;9.294;2023-03-01T00:34:13;99838.59;;;-2.16;96.21
49877;BME280;35771;48.978;9.294;2023-03-01T00:36:41;99841.34;;;-2.18;96.35
49877;BME280;35771;48.978;9.294;2023-03-01T00:39:11;99853.31;;;-2.25;96.70
49877;BME280;35771;48.978;9.294;2023-03-01T00:41:38;99861.63;;;-2.31;97.03
49877;BME280;35771;48.978;9.294;2023-03-01T00:44:05;99846.25;;;-2.42;97.30
49877;BME280;35771;48.978;9.294;2023-03-01T00:46:35;99870.66;;;-2.34;98.53
49877;BME280;35771;48.978;9.294;2023-03-01T00:49:01;99874.44;;;-2.38;99.39
49877;BME280;35771;48.978;9.294;2023-03-01T00:51:33;99874.75;;;-2.44;99.79
49877;BME280;35771;48.978;9.294;2023-03-01T00:54:02;99847.59;;;-2.67;99.99
49877;BME280;35771;48.978;9.294;2023-03-01T00:56:29;99842.28;;;-2.67;99.81
49877;BME280;35771;48.978;9.294;2023-03-01T00:58:56;99870.75;;;-2.51;100.00
49877;BME280;35771;48.978;9.294;2023-03-01T01:01:24;99868.16;;;-2.53;99.96
49877;BME280;35771;48.978;9.294;2023-03-01T01:03:53;99869.94;;;-2.53;99.88
49877;BME280;35771;48.978;9.294;2023-03-01T01:06:23;99851.66;;;-2.59;99.71
49877;BME280;35771;48.978;9.294;2023-03-01T01:08:50;99861.53;;;-2.61;100.00
49877;BME280;35771;48.978;9.294;2023-03-01T01:11:19;99859.72;;;-2.61;100.00
49877;BME280;35771;48.978;9.294;2023-03-01T01:13:47;99861.53;;;-2.61;100.00
49877;BME280;35771;48.978;9.294;2023-03-01T01:16:14;99858.19;;;-2.49;99.61
49877;BME280;35771;48.978;9.294;2023-03-01T01:18:41;99841.44;;;-2.35;98.22
49877;BME280;35771;48.978;9.294;2023-03-01T01:21:10;99848.16;;;-2.28;98.09
49877;BME280;35771;48.978;9.294;2023-03-01T01:23:38;99816.94;;;-2.26;97.37
49877;BME280;35771;48.978;9.294;2023-03-01T01:26:06;99832.75;;;-2.07;96.77
49877;BME280;35771;48.978;9.294;2023-03-01T01:28:34;99831.53;;;-2.01;96.06
49877;BME280;35771;48.978;9.294;2023-03-01T01:31:01;99833.66;;;-1.92;95.80
49877;BME280;35771;48.978;9.294;2023-03-01T01:33:27;99821.56;;;-1.98;96.00
49877;BME280;35771;48.978;9.294;2023-03-01T01:35:54;99829.09;;;-1.90;95.41
49877;BME280;35771;48.978;9.294;2023-03-01T01:38:20;99820.53;;;-1.95;96.15
49877;BME280;35771;48.978;9.294;2023-03-01T01:40:49;99825.31;;;-1.86;95.10
49877;BME280;35771;48.978;9.294;2023-03-01T01:43:19;99819.03;;;-1.85;95.13
49877;BME280;35771;48.978;9.294;2023-03-01T01:45:48;99821.53;;;-1.82;95.27
49877;BME280;35771;48.978;9.294;2023-03-01T01:48:18;99810.16;;;-1.85;96.02
49877;BME280;35771;48.978;9.294;2023-03-01T01:50:50;99820.81;;;-1.69;95.99
49877;BME280;35771;48.978;9.294;2023-03-01T01:53:20;99812.03;;;-1.71;95.19
49877;BME280;35771;48.978;9.294;2023-03-01T01:55:50;99786.69;;;-1.79;94.96
49877;BME280;35771;48.978;9.294;2023-03-01T01:58:19;99803.31;;;-1.59;95.02
49877;BME280;35771;48.978;9.294;2023-03-01T02:00:48;99753.69;;;-1.76;94.13
49877;BME280;35771;48.978;9.294;2023-03-01T02:03:19;99760.59;;;-1.73;93.98
49877;BME280;35771;48.978;9.294;2023-03-01T02:05:52;99768.31;;;-1.69;93.64
49877;BME280;35771;48.978;9.294;2023-03-01T02:08:23;99788.38;;;-1.47;93.33
49877;BME280;35771;48.978;9.294;2023-03-01T02:10:51;99764.84;;;-1.55;92.89
49877;BME280;35771;48.978;9.294;2023-03-01T02:13:18;99764.06;;;-1.57;93.78
49877;BME280;35771;48.978;9.294;2023-03-01T02:15:45;99765.78;;;-1.56;93.13
49877;BME280;35771;48.978;9.294;2023-03-01T02:18:16;99753.50;;;-1.58;93.24
49877;BME280;35771;48.978;9.294;2023-03-01T02:20:50;99743.09;;;-1.63;92.99
49877;BME280;35771;48.978;9.294;2023-03-01T02:23:20;99755.50;;;-1.48;93.20
49877;BME280;35771;48.978;9.294;2023-03-01T02:25:51;99737.22;;;-1.54;92.53
49877;BME280;35771;48.978;9.294;2023-03-01T02:28:29;99763.34;;;-1.30;92.72
49877;BME280;35771;48.978;9.294;2023-03-01T02:30:56;99735.69;;;-1.44;92.09
49877;BME280;35771;48.978;9.294;2023-03-01T02:33:41;99732.47;;;-1.34;91.99
49877;BME280;35771;48.978;9.294;2023-03-01T02:36:10;99747.78;;;-1.23;91.19
49877;BME280;35771;48.978;9.294;2023-03-01T02:38:38;99755.16;;;-1.13;91.86
49877;BME280;35771;48.978;9.294;2023-03-01T02:41:07;99737.72;;;-1.18;91.98
49877;BME280;35771;48.978;9.294;2023-03-01T02:43:36;99710.72;;;-1.28;91.53
49877;BME280;35771;48.978;9.294;2023-03-01T02:46:08;99732.09;;;-1.14;91.81
49877;BME280;35771;48.978;9.294;2023-03-01T02:48:40;99736.56;;;-1.14;92.39
49877;BME280;35771;48.978;9.294;2023-03-01T02:51:22;99707.03;;;-1.26;90.82
49877;BME280;35771;48.978;9.294;2023-03-01T02:53:59;99743.13;;;-1.05;91.90
49877;BME280;35771;48.978;9.294;2023-03-01T02:56:30;99745.03;;;-1.08;91.31
49877;BME280;35771;48.978;9.294;2023-03-01T02:58:59;99710.44;;;-1.23;91.59
49877;BME280;35771;48.978;9.294;2023-03-01T03:01:27;99733.81;;;-1.13;91.08
49877;BME280;35771;48.978;9.294;2023-03-01T03:04:02;99737.13;;;-1.09;90.73
49877;BME280;35771;48.978;9.294;2023-03-01T03:06:28;99735.09;;;-1.05;89.90
49877;BME280;35771;48.978;9.294;2023-03-01T03:08:55;99738.56;;;-1.03;90.61
49877;BME280;35771;48.978;9.294;2023-03-01T03:11:22;99726.16;;;-1.04;91.00
49877;BME280;35771;48.978;9.294;2023-03-01T03:13:48;99740.00;;;-0.98;90.41
49877;BME280;35771;48.978;9.294;2023-03-01T03:16:16;99709.09;;;-1.16;90.78
49877;BME280;35771;48.978;9.294;2023-03-01T03:18:43;99695.75;;;-1.16;90.33
49877;BME280;35771;48.978;9.294;2023-03-01T03:21:13;99733.69;;;-0.97;89.67
49877;BME280;35771;48.978;9.294;2023-03-01T03:23:41;99722.06;;;-0.96;89.22
49877;BME280;35771;48.978;9.294;2023-03-01T03:26:07;99723.69;;;-0.93;89.92
49877;BME280;35771;48.978;9.294;2023-03-01T03:28:35;99726.44;;;-0.95;89.79
49877;BME280;35771;48.978;9.294;2023-03-01T03:31:05;99723.78;;;-0.95;90.36
49877;BME280;35771;48.978;9.294;2023-03-01T03:33:33;99723.00;;;-0.97;89.84
49877;BME280;35771;48.978;9.294;2023-03-01T03:35:59;99698.53;;;-1.03;90.00
49877;BME280;35771;48.978;9.294;2023-03-01T03:38:26;99702.25;;;-1.06;90.19
49877;BME280;35771;48.978;9.294;2023-03-01T03:41:00;99708.31;;;-1.04;89.47
49877;BME280;35771;48.978;9.294;2023-03-01T03:43:27;99702.81;;;-1.01;89.43
49877;BME280;35771;48.978;9.294;2023-03-01T03:45:54;99697.84;;;-1.07;90.59
49877;BME280;35771;48.978;9.294;2023-03-01T03:48:23;99684.59;;;-1.09;89.41
49877;BME280;35771;48.978;9.294;2023-03-01T03:50:53;99697.28;;;-0.98;89.80
49877;BME280;35771;48.978;9.294;2023-03-01T03:53:21;99710.22;;;-0.92;89.05
49877;BME280;35771;48.978;9.294;2023-03-01T03:55:48;99702.53;;;-0.96;88.38
49877;BME280;35771;48.978;9.294;2023-03-01T03:58:17;99706.13;;;-0.97;88.59
49877;BME280;35771;48.978;9.294;2023-03-01T04:00:48;99673.28;;;-1.12;89.96
49877;BME280;35771;48.978;9.294;2023-03-01T04:03:16;99705.19;;;-0.96;89.36
49877;BME280;35771;48.978;9.294;2023-03-01T04:05:44;99700.81;;;-0.97;89.12
49877;BME280;35771;48.978;9.294;2023-03-01T04:08:12;99671.84;;;-1.18;89.70
49877;BME280;35771;48.978;9.294;2023-03-01T04:10:41;99676.16;;;-1.15;89.45
49877;BME280;35771;48.978;9.294;2023-03-01T04:13:10;99701.50;;;-1.08;90.33
49877;BME280;35771;48.978;9.294;2023-03-01T04:15:38;99674.63;;;-1.19;90.03
49877;BME280;35771;48.978;9.294;2023-03-01T04:18:05;99698.72;;;-1.07;90.56
49877;BME280;35771;48.978;9.294;2023-03-01T04:20:34;99687.84;;;-1.18;89.95
49877;BME280;35771;48.978;9.294;2023-03-01T04:23:04;99682.53;;;-1.18;89.95
49877;BME280;35771;48.978;9.294;2023-03-01T04:25:40;99692.91;;;-1.13;90.54
49877;BME280;35771;48.978;9.294;2023-03-01T04:28:08;99680.16;;;-1.22;90.27
49877;BME280;35771;48.978;9.294;2023-03-01T04:30:35;99695.88;;;-1.18;91.31
49877;BME280;35771;48.978;9.294;2023-03-01T04:33:03;99671.00;;;-1.33;90.59
49877;BME280;35771;48.978;9.294;2023-03-01T04:35:30;99703.13;;;-1.20;90.55
49877;BME280;35771;48.978;9.294;2023-03-01T04:37:57;99657.41;;;-1.43;90.40
49877;BME280;35771;48.978;9.294;2023-03-01T04:40:24;99679.88;;;-1.32;90.29
49877;BME280;35771;48.978;9.294;2023-03-01T04:42:52;99662.06;;;-1.46;90.37
49877;BME280;35771;48.978;9.294;2023-03-01T04:45:19;99691.41;;;-1.32;90.73
49877;BME280;35771;48.978;9.294;2023-03-01T04:47:46;99685.72;;;-1.40;90.81
49877;BME280;35771;48.978;9.294;2023-03-01T04:50:15;99698.66;;;-1.34;90.24
49877;BME280;35771;48.978;9.294;2023-03-01T04:52:43;99709.44;;;-1.35;90.85
49877;BME280;35771;48.978;9.294;2023-03-01T04:55:10;99708.00;;;-1.41;91.81
49877;BME280;35771;48.978;9.294;2023-03-01T04:57:37;99708.19;;;-1.44;92.03
49877;BME280;35771;48.978;9.294;2023-03-01T05:00:08;99711.97;;;-1.48;91.94
49877;BME280;35771;48.978;9.294;2023-03-01T05:02:46;99701.97;;;-1.59;92.97
49877;BME280;35771;48.978;9.294;2023-03-01T05:05:13;99719.13;;;-1.49;92.58
49877;BME280;35771;48.978;9.294;2023-03-01T05:07:40;99676.38;;;-1.76;93.53
49877;BME280;35771;48.978;9.294;2023-03-01T05:10:07;99706.06;;;-1.68;93.49
49877;BME280;35771;48.978;9.294;2023-03-01T05:12:34;99679.66;;;-1.87;93.64
49877;BME280;35771;48.978;9.294;2023-03-01T05:15:02;99703.47;;;-1.84;94.65
49877;BME280;35771;48.978;9.294;2023-03-01T05:17:33;99709.47;;;-1.80;93.98
49877;BME280;35771;48.978;9.294;2023-03-01T05:20:00;99675.38;;;-2.04;95.21
49877;BME280;35771;48.978;9.294;2023-03-01T05:22:29;99687.50;;;-2.14;96.75
49877;BME280;35771;48.978;9.294;2023-03-01T05:24:55;99704.94;;;-2.08;96.18
49877;BME280;35771;48.978;9.294;2023-03-01T05:27:22;99694.09;;;-2.20;96.91
49877;BME280;35771;48.978;9.294;2023-03-01T05:29:48;99709.28;;;-2.22;97.56
49877;BME280;35771;48.978;9.294;2023-03-01T05:32:15;99700.91;;;-2.30;98.09
49877;BME280;35771;48.978;9.294;2023-03-01T05:34:43;99701.06;;;-2.33;98.20
49877;BME280;35771;48.978;9.294;2023-03-01T05:37:11;99688.88;;;-2.37;98.05
49877;BME280;35771;48.978;9.294;2023-03-01T05:39:38;99706.50;;;-2.35;98.55
49877;BME280;35771;48.978;9.294;2023-03-01T05:42:10;99698.16;;;-2.44;99.10
49877;BME280;35771;48.978;9.294;2023-03-01T05:44:37;99706.16;;;-2.44;99.51
49877;BME280;35771;48.978;9.294;2023-03-01T05:47:04;99664.03;;;-2.68;100.00
49877;BME280;35771;48.978;9.294;2023-03-01T05:49:31;99681.63;;;-2.65;100.00
49877;BME280;35771;48.978;9.294;2023-03-01T05:52:01;99693.28;;;-2.52;100.00
49877;BME280;35771;48.978;9.294;2023-03-01T05:54:28;99694.13;;;-2.52;100.00
49877;BME280;35771;48.978;9.294;2023-03-01T05:56:54;99659.84;;;-2.72;100.00
49877;BME280;35771;48.978;9.294;2023-03-01T05:59:21;99674.66;;;-2.68;100.00
49877;BME280;35771;48.978;9.294;2023-03-01T06:01:48;99696.81;;;-2.52;100.00
49877;BME280;35771;48.978;9.294;2023-03-01T06:04:15;99677.16;;;-2.65;100.00
49877;BME280;35771;48.978;9.294;2023-03-01T06:06:41;99673.66;;;-2.65;100.00
49877;BME280;35771;48.978;9.294;2023-03-01T06:09:09;99694.75;;;-2.46;100.00
49877;BME280;35771;48.978;9.294;2023-03-01T06:11:37;99696.50;;;-2.61;100.00
49877;BME280;35771;48.978;9.294;2023-03-01T06:14:03;99691.84;;;-2.58;100.00
49877;BME280;35771;48.978;9.294;2023-03-01T06:16:31;99673.47;;;-2.62;100.00
49877;BME280;35771;48.978;9.294;2023-03-01T06:18:58;99691.03;;;-2.44;100.00
49877;BME280;35771;48.978;9.294;2023-03-01T06:21:24;99685.28;;;-2.36;100.00
49877;BME280;35771;48.978;9.294;2023-03-01T06:23:51;99695.22;;;-2.24;100.00
49877;BME280;35771;48.978;9.294;2023-03-01T06:26:19;99697.09;;;-2.26;100.00
49877;BME280;35771;48.978;9.294;2023-03-01T06:28:46;99668.22;;;-2.48;100.00
49877;BME280;35771;48.978;9.294;2023-03-01T06:31:12;99689.25;;;-2.43;100.00
49877;BME280;35771;48.978;9.294;2023-03-01T06:33:39;99701.63;;;-2.42;100.00
49877;BME280;35771;48.978;9.294;2023-03-01T06:36:07;99684.91;;;-2.60;100.00
49877;BME280;35771;48.978;9.294;2023-03-01T06:38:34;99701.09;;;-2.49;100.00
49877;BME280;35771;48.978;9.294;2023-03-01T06:41:01;99684.28;;;-2.50;100.00
49877;BME280;35771;48.978;9.294;2023-03-01T06:43:29;99666.19;;;-2.59;100.00
49877;BME280;35771;48.978;9.294;2023-03-01T06:45:55;99690.88;;;-2.41;100.00
49877;BME280;35771;48.978;9.294;2023-03-01T06:48:22;99663.44;;;-2.57;100.00
49877;BME280;35771;48.978;9.294;2023-03-01T06:50:48;99691.91;;;-2.43;100.00
49877;BME280;35771;48.978;9.294;2023-03-01T06:53:15;99675.00;;;-2.42;100.00
49877;BME280;35771;48.978;9.294;2023-03-01T06:55:42;99676.03;;;-2.45;100.00
49877;BME280;35771;48.978;9.294;2023-03-01T06:58:09;99674.94;;;-2.26;99.57
49877;BME280;35771;48.978;9.294;2023-03-01T07:00:37;99687.69;;;-2.17;100.00
49877;BME280;35771;48.978;9.294;2023-03-01T07:03:05;99672.00;;;-2.22;99.55
49877;BME280;35771;48.978;9.294;2023-03-01T07:05:34;99651.66;;;-2.23;99.96
49877;BME280;35771;48.978;9.294;2023-03-01T07:08:03;99656.91;;;-2.07;96.65
49877;BME280;35771;48.978;9.294;2023-03-01T07:10:30;99667.78;;;-1.81;93.78
49877;BME280;35771;48.978;9.294;2023-03-01T07:12:59;99641.91;;;-1.79;94.26
49877;BME280;35771;48.978;9.294;2023-03-01T07:15:26;99660.34;;;-1.62;92.03
49877;BME280;35771;48.978;9.294;2023-03-01T07:17:55;99639.81;;;-1.59;91.60
49877;BME280;35771;48.978;9.294;2023-03-01T07:20:22;99662.25;;;-1.49;91.68
49877;BME280;35771;48.978;9.294;2023-03-01T07:22:50;99663.88;;;-1.47;91.02
49877;BME280;35771;48.978;9.294;2023-03-01T07:25:17;99666.06;;;-1.39;90.96
49877;BME280;35771;48.978;9.294;2023-03-01T07:27:44;99669.59;;;-1.38;90.51
49877;BME280;35771;48.978;9.294;2023-03-01T07:30:18;99651.50;;;-1.33;88.66
49877;BME280;35771;48.978;9.294;2023-03-01T07:32:44;99670.06;;;-1.17;87.80
49877;BME280;35771;48.978;9.294;2023-03-01T07:35:13;99651.28;;;-1.30;88.44
49877;BME280;35771;48.978;9.294;2023-03-01T07:37:40;99633.00;;;-1.36;87.34
49877;BME280;35771;48.978;9.294;2023-03-01T07:40:10;99656.13;;;-1.22;87.83
49877;BME280;35771;48.978;9.294;2023-03-01T07:42:37;99658.69;;;-1.07;87.07
49877;BME280;35771;48.978;9.294;2023-03-01T07:45:05;99648.47;;;-1.00;87.67
49877;BME280;35771;48.978;9.294;2023-03-01T07:47:32;99625.59;;;-1.04;86.27
49877;BME280;35771;48.978;9.294;2023-03-01T07:49:58;99634.19;;;-0.99;85.25
49877;BME280;35771;48.978;9.294;2023-03-01T07:52:28;99655.88;;;-0.91;85.76
49877;BME280;35771;48.978;9.294;2023-03-01T07:54:54;99648.25;;;-0.82;85.63
49877;BME280;35771;48.978;9.294;2023-03-01T07:57:21;99650.13;;;-0.84;85.22
49877;BME280;35771;48.978;9.294;2023-03-01T07:59:47;99646.31;;;-0.80;85.18
49877;BME280;35771;48.978;9.294;2023-03-01T08:02:14;99623.75;;;-0.89;84.28
49877;BME280;35771;48.978;9.294;2023-03-01T08:04:41;99608.03;;;-0.94;83.99
49877;BME280;35771;48.978;9.294;2023-03-01T08:07:07;99643.34;;;-0.76;83.27
49877;BME280;35771;48.978;9.294;2023-03-01T08:09:36;99619.81;;;-0.83;83.06
49877;BME280;35771;48.978;9.294;2023-03-01T08:12:03;99620.28;;;-0.77;82.90
49877;BME280;35771;48.978;9.294;2023-03-01T08:14:30;99610.25;;;-0.73;83.42
49877;BME280;35771;48.978;9.294;2023-03-01T08:16:56;99608.00;;;-0.66;83.02
49877;BME280;35771;48.978;9.294;2023-03-01T08:19:23;99621.31;;;-0.52;82.52
49877;BME280;35771;48.978;9.294;2023-03-01T08:21:50;99626.03;;;-0.43;82.60
49877;BME280;35771;48.978;9.294;2023-03-01T08:24:16;99616.97;;;-0.40;82.25
49877;BME280;35771;48.978;9.294;2023-03-01T08:26:44;99628.09;;;-0.21;83.83
49877;BME280;35771;48.978;9.294;2023-03-01T08:29:11;99633.13;;;-0.03;81.12
49877;BME280;35771;48.978;9.294;2023-03-01T08:31:39;99618.59;;;-0.12;80.18
49877;BME280;35771;48.978;9.294;2023-03-01T08:34:08;99643.41;;;0.16;80.59
49877;BME280;35771;48.978;9.294;2023-03-01T08:36:37;99610.47;;;0.03;79.74
49877;BME280;35771;48.978;9.294;2023-03-01T08:39:05;99618.19;;;0.20;78.72
49877;BME280;35771;48.978;9.294;2023-03-01T08:41:32;99624.59;;;0.30;77.32
49877;BME280;35771;48.978;9.294;2023-03-01T08:44:00;99601.25;;;0.20;77.46
49877;BME280;35771;48.978;9.294;2023-03-01T08:46:28;99618.59;;;0.40;78.11
49877;BME280;35771;48.978;9.294;2023-03-01T08:48:55;99620.38;;;0.39;77.55
49877;BME280;35771;48.978;9.294;2023-03-01T08:51:22;99619.44;;;0.40;77.25
49877;BME280;35771;48.978;9.294;2023-03-01T08:53:49;99635.47;;;0.53;77.07
49877;BME280;35771;48.978;9.294;2023-03-01T08:56:16;99622.72;;;0.57;76.30
49877;BME280;35771;48.978;9.294;2023-03-01T08:58:45;99621.09;;;0.67;77.01
49877;BME280;35771;48.978;9.294;2023-03-01T09:01:16;99615.13;;;0.63;76.38
49877;BME280;35771;48.978;9.294;2023-03-01T09:03:43;99610.41;;;0.67;76.51
49877;BME280;35771;48.978;9.294;2023-03-01T09:06:11;99620.50;;;0.63;75.72
49877;BME280;35771;48.978;9.294;2023-03-01T09:08:39;99600.25;;;0.59;75.94
49877;BME280;35771;48.978;9.294;2023-03-01T09:11:07;99605.38;;;0.62;75.63
49877;BME280;35771;48.978;9.294;2023-03-01T09:13:34;99592.84;;;0.63;76.49
49877;BME280;35771;48.978;9.294;2023-03-01T09:16:04;99583.94;;;0.75;75.34
49877;BME280;35771;48.978;9.294;2023-03-01T09:18:32;99573.34;;;0.74;75.32
49877;BME280;35771;48.978;9.294;2023-03-01T09:21:03;99579.81;;;0.95;75.26
49877;BME280;35771;48.978;9.294;2023-03-01T09:23:33;99576.38;;;0.93;74.38
49877;BME280;35771;48.978;9.294;2023-03-01T09:25:59;99581.69;;;1.06;74.24
49877;BME280;35771;48.978;9.294;2023-03-01T09:28:29;99572.28;;;1.00;73.99
49877;BME280;35771;48.978;9.294;2023-03-01T09:30:57;99549.91;;;1.01;73.78
49877;BME280;35771;48.978;9.294;2023-03-01T09:33:24;99546.19;;;1.15;72.93
49877;BME280;35771;48.978;9.294;2023-03-01T09:35:56;99582.16;;;1.35;72.25
49877;BME280;35771;48.978;9.294;2023-03-01T09:38:23;99540.88;;;1.27;72.44
49877;BME280;35771;48.978;9.294;2023-03-01T09:40:50;99544.94;;;1.44;74.07
49877;BME280;35771;48.978;9.294;2023-03-01T09:43:23;99563.75;;;1.66;71.54
49877;BME280;35771;48.978;9.294;2023-03-01T09:45:54;99546.09;;;1.64;72.11
49877;BME280;35771;48.978;9.294;2023-03-01T09:48:24;99534.00;;;1.58;70.72
49877;BME280;35771;48.978;9.294;2023-03-01T09:50:53;99559.13;;;1.68;71.18
49877;BME280;35771;48.978;9.294;2023-03-01T09:53:24;99561.59;;;1.83;70.49
49877;BME280;35771;48.978;9.294;2023-03-01T09:55:59;99560.88;;;1.92;69.87
49877;BME280;35771;48.978;9.294;2023-03-01T09:58:36;99514.06;;;1.85;69.84
49877;BME280;35771;48.978;9.294;2023-03-01T10:01:17;99528.09;;;2.00;69.60
49877;BME280;35771;48.978;9.294;2023-03-01T10:04:00;99549.56;;;2.22;70.21
49877;BME280;35771;48.978;9.294;2023-03-01T10:06:28;99530.78;;;2.22;68.70
49877;BME280;35771;48.978;9.294;2023-03-01T10:08:58;99522.84;;;2.21;68.57
49877;BME280;35771;48.978;9.294;2023-03-01T10:11:28;99510.53;;;2.29;68.45
49877;BME280;35771;48.978;9.294;2023-03-01T10:14:01;99525.88;;;2.50;67.56
49877;BME280;35771;48.978;9.294;2023-03-01T10:16:37;99529.16;;;2.54;68.47
49877;BME280;35771;48.978;9.294;2023-03-01T10:19:11;99515.88;;;2.52;66.78
49877;BME280;35771;48.978;9.294;2023-03-01T10:21:43;99518.44;;;2.65;66.32
49877;BME280;35771;48.978;9.294;2023-03-01T10:24:14;99481.56;;;2.56;66.93
49877;BME280;35771;48.978;9.294;2023-03-01T10:26:48;99512.72;;;2.91;65.98
49877;BME280;35771;48.978;9.294;2023-03-01T10:29:20;99495.03;;;2.88;66.09
49877;BME280;35771;48.978;9.294;2023-03-01T10:31:51;99498.03;;;3.06;67.07
49877;BME280;35771;48.978;9.294;2023-03-01T10:34:20;99500.44;;;3.09;65.50
49877;BME280;35771;48.978;9.294;2023-03-01T10:36:50;99488.72;;;3.10;64.44
49877;BME280;35771;48.978;9.294;2023-03-01T10:39:20;99456.34;;;2.91;65.29
49877;BME280;35771;48.978;9.294;2023-03-01T10:41:58;99466.50;;;3.08;66.72
49877;BME280;35771;48.978;9.294;2023-03-01T10:44:37;99466.72;;;3.16;64.30
49877;BME280;35771;48.978;9.294;2023-03-01T10:47:04;99485.25;;;3.41;64.51
49877;BME280;35771;48.978;9.294;2023-03-01T10:49:31;99469.66;;;3.34;64.88
49877;BME280;35771;48.978;9.294;2023-03-01T10:52:11;99485.00;;;3.65;64.65
49877;BME280;35771;48.978;9.294;2023-03-01T10:54:51;99479.78;;;3.73;64.59
49877;BME280;35771;48.978;9.294;2023-03-01T10:57:29;99470.47;;;3.77;63.40
49877;BME280;35771;48.978;9.294;2023-03-01T11:00:16;99464.28;;;3.86;64.08
49877;BME280;35771;48.978;9.294;2023-03-01T11:02:47;99453.38;;;3.88;64.15
49877;BME280;35771;48.978;9.294;2023-03-01T11:05:16;99476.91;;;3.96;62.46
49877;BME280;35771;48.978;9.294;2023-03-01T11:07:48;99450.44;;;3.91;63.44
49877;BME280;35771;48.978;9.294;2023-03-01T11:10:19;99446.75;;;3.92;63.02
49877;BME280;35771;48.978;9.294;2023-03-01T11:12:46;99446.97;;;4.10;63.58
49877;BME280;35771;48.978;9.294;2023-03-01T11:15:21;99424.91;;;4.16;61.91
49877;BME280;35771;48.978;9.294;2023-03-01T11:17:49;99408.75;;;4.16;62.91
49877;BME280;35771;48.978;9.294;2023-03-01T11:20:23;99426.78;;;4.35;62.89
49877;BME280;35771;48.978;9.294;2023-03-01T11:22:54;99413.19;;;4.37;61.33
49877;BME280;35771;48.978;9.294;2023-03-01T11:25:24;99426.38;;;4.50;60.75
49877;BME280;35771;48.978;9.294;2023-03-01T11:27:52;99405.25;;;4.35;60.04
49877;BME280;35771;48.978;9.294;2023-03-01T11:30:22;99402.56;;;4.45;60.72
49877;BME280;35771;48.978;9.294;2023-03-01T11:32:54;99417.47;;;4.78;61.30
49877;BME280;35771;48.978;9.294;2023-03-01T11:35:26;99405.84;;;4.78;60.33
49877;BME280;35771;48.978;9.294;2023-03-01T11:38:04;99389.97;;;4.75;60.63
49877;BME280;35771;48.978;9.294;2023-03-01T11:40:40;99406.84;;;4.87;61.00
49877;BME280;35771;48.978;9.294;2023-03-01T11:43:14;99402.72;;;4.83;60.08
49877;BME280;35771;48.978;9.294;2023-03-01T11:45:51;99395.78;;;4.90;60.75
49877;BME280;35771;48.978;9.294;2023-03-01T11:48:37;99373.25;;;4.81;59.59
49877;BME280;35771;48.978;9.294;2023-03-01T11:51:10;99380.47;;;4.90;58.99
49877;BME280;35771;48.978;9.294;2023-03-01T11:53:53;99364.88;;;4.94;59.37
49877;BME280;35771;48.978;9.294;2023-03-01T11:56:28;99380.84;;;5.25;59.13
49877;BME280;35771;48.978;9.294;2023-03-01T11:59:19;99354.72;;;5.25;57.76
49877;BME280;35771;48.978;9.294;2023-03-01T12:01:59;99371.56;;;5.37;58.97
49877;BME280;35771;48.978;9.294;2023-03-01T12:04:48;99359.34;;;5.53;58.67
49877;BME280;35771;48.978;9.294;2023-03-01T12:07:25;99356.03;;;5.59;57.87
49877;BME280;35771;48.978;9.294;2023-03-01T12:10:17;99349.47;;;5.61;58.04
49877;BME280;35771;48.978;9.294;2023-03-01T12:13:08;99347.50;;;5.63;57.69
49877;BME280;35771;48.978;9.294;2023-03-01T12:18:53;99315.16;;;5.54;57.37
49877;BME280;35771;48.978;9.294;2023-03-01T12:21:34;99334.69;;;5.75;57.20
49877;BME280;35771;48.978;9.294;2023-03-01T12:24:25;99313.31;;;5.82;56.37
49877;BME280;35771;48.978;9.294;2023-03-01T12:27:06;99319.69;;;5.91;56.99
49877;BME280;35771;48.978;9.294;2023-03-01T12:29:42;99301.28;;;5.76;56.66
49877;BME280;35771;48.978;9.294;2023-03-01T12:32:28;99314.31;;;5.81;56.89
49877;BME280;35771;48.978;9.294;2023-03-01T12:38:14;99275.06;;;5.96;56.37
49877;BME280;35771;48.978;9.294;2023-03-01T12:41:06;99300.59;;;6.20;56.25
49877;BME280;35771;48.978;9.294;2023-03-01T12:43:47;99303.88;;;6.24;56.12
49877;BME280;35771;48.978;9.294;2023-03-01T12:46:28;99289.59;;;6.31;56.06
49877;BME280;35771;48.978;9.294;2023-03-01T12:49:04;99266.75;;;6.08;55.96
49877;BME280;35771;48.978;9.294;2023-03-01T12:51:35;99285.97;;;6.23;56.04
49877;BME280;35771;48.978;9.294;2023-03-01T12:54:11;99253.34;;;6.16;55.96
49877;BME280;35771;48.978;9.294;2023-03-01T12:56:41;99263.69;;;6.38;55.66
49877;BME280;35771;48.978;9.294;2023-03-01T12:59:14;99274.63;;;6.55;56.58
49877;BME280;35771;48.978;9.294;2023-03-01T13:01:49;99246.88;;;6.09;55.41
49877;BME280;35771;48.978;9.294;2023-03-01T13:04:30;99263.84;;;6.19;55.78
49877;BME280;35771;48.978;9.294;2023-03-01T13:07:15;99255.63;;;6.29;55.26
49877;BME280;35771;48.978;9.294;2023-03-01T13:09:49;99246.16;;;6.25;55.70
49877;BME280;35771;48.978;9.294;2023-03-01T13:12:48;99272.63;;;6.39;56.92
49877;BME280;35771;48.978;9.294;2023-03-01T13:15:31;99246.84;;;6.27;55.86
49877;BME280;35771;48.978;9.294;2023-03-01T13:18:00;99251.13;;;6.11;56.01
49877;BME280;35771;48.978;9.294;2023-03-01T13:20:31;99235.81;;;6.20;56.43
49877;BME280;35771;48.978;9.294;2023-03-01T13:23:05;99261.66;;;6.41;56.31
49877;BME280;35771;48.978;9.294;2023-03-01T13:25:33;99248.25;;;6.31;55.99